WEATHER DATA

YESTERDAY
Time Temp. Dewp. Hum. Wind dir Wind speed Wind gust Bar. 1h Prec. 24h Prec.
00:03 15.1 11.7 80 18 0.6 1.9 1019.4 0.0000 0.0000
00:13 14.9 11.5 80 18 0.6 1.9 1019.4 0.0000 0.0000
00:23 14.7 11.5 81 18 0.6 1.9 1019.3 0.0000 0.0000
00:32 14.5 11.3 81 18 0.6 1.9 1019.2 0.0000 0.0000
00:43 14.3 11.3 82 18 0.6 1.9 1019.3 0.0000 0.0000
00:53 14.1 11.1 82 18 0.6 1.9 1019.4 0.0000 0.0000
01:03 13.8 11 83 18 0.6 1.9 1019.4 0.0000 0.0000
01:13 13.7 10.9 83 18 0.6 1.9 1019.3 0.0000 0.0000
01:23 13.5 10.9 84 18 0.6 1.9 1019.4 0.0000 0.0000
01:33 13.3 10.7 84 18 0.6 1.9 1019.2 0.0000 0.0000
01:43 13.2 10.7 85 18 0.6 1.9 1019.3 0.0000 0.0000
01:53 13 10.5 85 18 0.6 1.9 1019.3 0.0000 0.0000
02:03 12.8 10.5 86 18 0.6 1.9 1019.4 0.0000 0.0000
02:13 12.7 10.4 86 18 0.6 1.9 1019.1 0.0000 0.0000
02:24 12.6 10.3 86 18 0.6 1.9 1019.2 0.0000 0.0000
02:33 12.5 10.2 86 18 0.6 1.9 1019.1 0.0000 0.0000
02:43 12.3 10 86 18 0.6 1.9 1019 0.0000 0.0000
02:53 12.2 9.9 86 18 0.6 1.9 1019.1 0.0000 0.0000
03:03 12.1 9.8 86 18 0.6 1.9 1018.9 0.0000 0.0000
03:13 11.9 9.6 86 18 0.6 1.9 1019 0.0000 0.0000
03:23 11.8 9.7 87 18 0.6 1.9 1018.9 0.0000 0.0000
03:34 11.6 9.5 87 18 0.6 1.9 1019 0.0000 0.0000
03:43 11.4 9.3 87 18 0.6 1.9 1019 0.0000 0.0000
03:53 11.3 9.2 87 18 0.6 1.9 1018.8 0.0000 0.0000
04:04 11.2 9.1 87 18 0.6 1.9 1018.9 0.0000 0.0000
04:14 11 8.9 87 18 0.6 1.9 1018.9 0.0000 0.0000
04:23 10.9 9 88 18 0.6 1.9 1018.9 0.0000 0.0000
04:33 10.8 9.1 89 18 0.6 1.9 1019 0.0000 0.0000
04:44 10.8 8.9 88 18 0.6 1.9 1019.1 0.0000 0.0000
04:53 10.7 8.8 88 18 0.6 1.9 1019 0.0000 0.0000
05:03 10.6 8.7 88 18 0.6 1.9 1019.1 0.0000 0.0000
05:14 10.4 8.5 88 18 0.6 1.9 1018.9 0.0000 0.0000
05:23 10.4 8.7 89 18 0.6 1.9 1018.9 0.0000 0.0000
05:33 10.3 8.6 89 18 0.6 1.9 1019.1 0.0000 0.0000
05:43 10.2 8.5 89 18 0.6 1.9 1019 0.0000 0.0000
05:54 10 8.3 89 18 0.6 1.9 1019.1 0.0000 0.0000
06:03 9.9 8.2 89 18 0.6 1.9 1019.2 0.0000 0.0000
06:13 9.8 8.1 89 18 0.6 1.9 1019.3 0.0000 0.0000
06:24 9.7 8 89 18 0.6 1.9 1019.3 0.0000 0.0000
06:34 9.6 7.9 89 18 0.6 1.9 1019.2 0.0000 0.0000
06:43 9.5 7.8 89 18 0.6 1.9 1019.3 0.0000 0.0000
06:54 9.4 7.7 89 18 0.6 1.9 1019.2 0.0000 0.0000
07:04 9.3 7.7 90 18 0.6 1.9 1019.1 0.0000 0.0000
07:13 9.2 7.6 90 18 0.6 1.9 1019 0.0000 0.0000
07:23 9.2 7.6 90 18 0.6 1.9 1019.2 0.0000 0.0000
07:34 9.1 7.5 90 18 0.6 1.9 1018.9 0.0000 0.0000
07:44 9 7.4 90 18 0.6 1.9 1019.1 0.0000 0.0000
07:53 9 7.4 90 18 0.6 1.9 1019.1 0.0000 0.0000
08:04 8.9 7.4 90 18 0.6 1.9 1019.3 0.0000 0.0000
08:14 8.9 7.4 90 18 0.6 1.9 1019.3 0.0000 0.0000
08:23 8.9 7.4 90 18 0.6 1.9 1019.1 0.0000 0.0000
08:33 8.8 7.3 90 18 0.6 1.9 1019.2 0.0000 0.0000
08:44 8.7 7.2 90 18 0.6 1.9 1019.2 0.0000 0.0000
08:54 8.7 7.3 91 18 0.6 1.9 1019.4 0.0000 0.0000
09:03 8.8 7.6 92 18 0.6 1.9 1019.4 0.0000 0.0000
09:20 9.1 7.9 92 18 0.6 1.9 1019.5 0.0000 0.0000
09:30 9.4 8.2 92 18 0.6 1.9 1019.4 0.0000 0.0000
09:50 10 8.9 93 18 0.6 1.9 1019.4 0.0000 0.0000
10:01 10.4 9.3 93 18 0.6 1.9 1019.4 0.0000 0.0000
10:10 10.8 9.7 93 18 0.6 1.9 1019.6 0.0000 0.0000
10:31 11.7 10.4 92 18 0.6 1.9 1019.5 0.0000 0.0000
10:41 12.4 11 91 18 0.6 1.9 1019.6 0.0000 0.0000
10:50 12.9 11.5 91 18 0.6 1.9 1019.6 0.0000 0.0000
11:00 13.5 11.7 89 18 0.6 1.9 1019.6 0.0000 0.0000
11:11 14.1 12 87 18 0.6 1.9 1019.5 0.0000 0.0000
11:21 14.8 12.1 84 18 0.6 1.9 1019.5 0.0000 0.0000
11:30 15.3 12.2 82 18 0.6 1.9 1019.6 0.0000 0.0000
11:41 15.9 12.3 79 18 0.6 1.9 1019.4 0.0000 0.0000
11:51 16.4 12.4 77 18 0.6 1.9 1019.2 0.0000 0.0000
12:01 17 12.3 74 18 0.6 1.9 1019.3 0.0000 0.0000
12:11 17.4 12.7 74 18 0.6 1.9 1019.2 0.0000 0.0000
12:21 17.7 12.6 72 18 0.6 1.9 1019.2 0.0000 0.0000
12:31 18 12.7 71 18 0.6 1.9 1019.1 0.0000 0.0000
12:41 18.4 12.6 69 18 0.6 1.9 1019.1 0.0000 0.0000
12:51 18.7 12.7 68 18 0.6 1.9 1018.9 0.0000 0.0000
13:01 19 12.7 67 18 0.6 1.9 1019 0.0000 0.0000
13:11 19.2 12.7 66 18 0.6 1.9 1018.7 0.0000 0.0000
13:21 19.4 12.9 66 18 0.6 1.9 1018.7 0.0000 0.0000
13:31 19.7 12.7 64 18 0.6 1.9 1018.6 0.0000 0.0000
13:41 19.9 12.7 63 18 0.6 1.9 1018.8 0.0000 0.0000
13:51 20.2 12.9 63 18 0.6 1.9 1018.5 0.0000 0.0000
14:01 20.5 13.2 63 18 0.6 1.9 1018.4 0.0000 0.0000
14:11 20.7 13.2 62 18 0.6 1.9 1018.5 0.0000 0.0000
14:21 20.9 13.1 61 18 0.6 1.9 1018.3 0.0000 0.0000
14:31 21 13.2 61 18 0.6 1.9 1018.2 0.0000 0.0000
14:41 21.2 12.9 59 18 0.6 1.9 1018.1 0.0000 0.0000
14:51 21.4 13.3 60 18 0.6 1.9 1018.2 0.0000 0.0000
15:01 21.7 13.1 58 18 0.6 1.9 1018 0.0000 0.0000
15:12 22 13.6 59 18 0.6 1.9 1017.8 0.0000 0.0000
15:21 22.1 13.5 58 18 0.6 1.9 1017.8 0.0000 0.0000
15:31 22.2 13.3 57 18 0.6 1.9 1017.8 0.0000 0.0000
15:42 22.2 13.3 57 18 0.6 1.9 1017.7 0.0000 0.0000
15:51 22.2 13.3 57 18 0.6 1.9 1017.7 0.0000 0.0000
16:01 22.2 13.3 57 18 0.6 1.9 1017.8 0.0000 0.0000
16:11 22.1 13.2 57 18 0.6 1.9 1017.8 0.0000 0.0000
16:22 21.9 13 57 18 0.6 1.9 1017.8 0.0000 0.0000
16:31 21.8 12.6 56 18 0.6 1.9 1017.7 0.0000 0.0000
16:41 21.8 12.6 56 18 0.6 1.9 1017.7 0.0000 0.0000
16:52 21.6 12.7 57 18 0.6 1.9 1017.5 0.0000 0.0000
17:02 21.5 12.6 57 18 0.6 1.9 1017.6 0.0000 0.0000
17:12 21.3 13 59 18 0.6 1.9 1017.6 0.0000 0.0000
17:22 21 12.7 59 18 0.6 1.9 1017.6 0.0000 0.0000
17:32 20.7 12.7 60 18 0.6 1.9 1017.7 0.0000 0.0000
17:42 20.4 12.6 61 18 0.6 1.9 1017.5 0.0000 0.0000
18:00 19.8 12.6 63 18 0.6 1.9 1017.7 0.0000 0.0000
18:09 19.6 12.8 65 18 0.6 1.9 1017.7 0.0000 0.0000
18:20 19.3 12.8 66 18 0.6 1.9 1017.7 0.0000 0.0000
18:30 18.9 12.6 67 18 0.6 1.9 1017.9 0.0000 0.0000
18:40 18.5 12.5 68 18 0.6 1.9 1017.8 0.0000 0.0000
18:50 18.1 12.5 70 18 0.6 1.9 1017.9 0.0000 0.0000
19:01 17.7 12.4 71 18 0.6 1.9 1018.1 0.0000 0.0000
19:11 17.4 12.3 72 18 0.6 1.9 1018.1 0.0000 0.0000
19:20 17.1 12.2 73 18 0.6 1.9 1018.2 0.0000 0.0000
19:31 16.8 12.1 74 18 0.6 1.9 1018.2 0.0000 0.0000
19:41 16.5 11.9 74 18 0.6 1.9 1018.3 0.0000 0.0000
19:51 16.2 11.8 75 18 0.6 1.9 1018.2 0.0000 0.0000
20:01 16 11.8 76 18 0.6 1.9 1018.4 0.0000 0.0000
20:11 15.8 11.6 76 18 0.6 1.9 1018.5 0.0000 0.0000
20:21 15.5 11.5 77 18 0.6 1.9 1018.4 0.0000 0.0000
20:31 15.2 11.2 77 18 0.6 1.9 1018.4 0.0000 0.0000
20:41 15.1 11.3 78 18 0.6 1.9 1018.6 0.0000 0.0000
20:52 14.8 11.2 79 18 0.6 1.9 1018.6 0.0000 0.0000
21:01 14.6 11.2 80 18 0.6 1.9 1018.8 0.0000 0.0000
21:11 14.4 11 80 18 0.6 1.9 1018.8 0.0000 0.0000
21:22 14.3 10.9 80 18 0.6 1.9 1018.8 0.0000 0.0000
21:32 14.1 10.9 81 18 0.6 1.9 1018.9 0.0000 0.0000
21:42 13.9 10.7 81 18 0.6 1.9 1018.9 0.0000 0.0000
21:52 13.8 10.6 81 18 0.6 1.9 1018.8 0.0000 0.0000
22:02 13.6 10.6 82 18 0.6 1.9 1019.1 0.0000 0.0000
22:12 13.5 10.7 83 18 0.6 1.9 1019 0.0000 0.0000
22:33 13.3 10.5 83 18 0.6 1.9 1019 0.0000 0.0000
22:43 13.1 10.5 84 18 0.6 1.9 1019.2 0.0000 0.0000
22:53 13 10.4 84 18 0.6 1.9 1019.1 0.0000 0.0000
23:03 12.9 10.3 84 18 0.6 1.9 1019.2 0.0000 0.0000
23:13 12.8 10.2 84 18 0.6 1.9 1019.2 0.0000 0.0000
23:23 12.7 10.1 84 18 0.6 1.9 1019.2 0.0000 0.0000
23:33 12.5 10 85 18 0.6 1.9 1019.2 0.0000 0.0000
23:43 12.5 10 85 18 0.6 1.9 1019.2 0.0000 0.0000
23:54 12.4 10 85 18 0.6 1.9 1019.3 0.0000 0.0000

DAY STATISTIC

2018-10-17
TEMPERATURE
AVERAGE
14.7
HIGH
22.2
15:31
LOW
8.7
08:44
PRESSURE
AVERAGE
1018.8
HIGH
1019.6
10:10
LOW
1017.5
16:52
DEWPOINT
AVERAGE
10.8
HIGH
13.6
15:12
LOW
7.2
08:44
HUMIDITY
AVERAGE
78
HIGH
93
09:50
LOW
56
16:31
WIND SPEED
AVERAGE
0.6
HIGH
0.6
00:03
WIND GUST
AVERAGE
1.9
HIGH
1.9
00:03
WIND DIRECTION
PREVAILING
N
100%
N
100.0
NE
0.0
E
0.0
SE
0.0
S
0.0
SW
0.0
W
0.0
NW
0.0
PRECIPITATION
RAIN HOUR
0.0
RAIN DAY
0.0
TEMPERATURE (°C)
LOW
8.7
HIGH
22.2
AVERAGE
14.7
PRESSURE (hpa)
LOW
1017.5
HIGH
1019.6
AVERAGE
1018.8
DEVICE